Turkey, North Carolina
Current Conditions -  °F | °C
As of 3:15 AM on Tuesday 27 Jan 2015 (Local Time) from KCTZ Reporting Station
Drizzle Drizzle  
Wind Chill: 35°   Ceiling: 1800
Heat Index: 40°   Visibility: 10mi
Dew Point: 38°   Wind: 7mph
Humidity: 91%   Direction: 320°NW
Pressure: 29.71"   Gusts: NA
Location:  34.99°N, 78.18°W
Report Text: KCTZ 270815Z AUTO 32006KT 10SM -DZ SCT013 BKN018 OVC027 05/03 A2971 RMK AO2 T00450032
Loading
Personal Weather Stations






























Interactive Weather Map New forecast layout! Learn more

10-Day Weather Forecast

Advertisements
Track Severe Weather on mobile